map of MOC home
Great Circle Mapper logo
MOC - Airport
Location
City:  Montes Claros, Minas Gerais, Brazil
Name:Mário Ribeiro Airport
ICAO / IATA:SBMK / MOC

Details
Type:Airport (Aerodrome, Airfield)
Use:Public/Civil
Latitude:16°42'25"S (-16.706924)
Longitude:43°49'08"W (-43.818899)
Datum:WGS 1984
Elevation:2191 ft (668 m)
Runways:1
Longest:6890 × 148 ft (2100 × 45 m), paved

Time
Time Zone:UTC-3 (DST-2)
Local Time:

Weather
METAR:SBMK 190400Z 05005KT CAVOK 22/10 Q1017

Related Locations
Nearby:
Farthest:YAP: 11919 mi / 19182 km
Yap Island [Yap Intl], YAP, FM

Find:

   beyond  
but within

Other Information
Maps:
NOTAMs:
Links:
Sources:

  
flag of Brazil
flag of Minas Gerais
  

Sectional Chart

Flight Planning
at skyvector.com

Satellite Image

Google Maps Satellite View

 

Copyright © 2004-2014 Karl L. Swartz. All rights reserved.
The Great Circle Mapper name and logo are trademarks of the Great Circle Mapper.
All other trademarks mentioned herein belong to their respective owners.
Please see credits for attibutions and further copyright information.

  Follow gcmap on Facebook Follow gcmap on Twitter

hCard Microformat

Geo Microformat